KAL517 EHAM-EDDF
Flight info
| Callsign | KAL517 |
|---|---|
| Flight time | 0h 45m |
| Altitude | 33000 |
| Route | EDUPO Z739 MISGO DCT DIXAT |
| Aircraft | B748/H-SDE3FGHIM1M2RWXY/LB1 |
Departure
| Time | 2026-05-04 16:42 |
|---|---|
| Airport | Amsterdam Airport Schiphol (EHAM) |
Arrival
| Time | 2026-05-04 17:27 |
|---|---|
| Airport | Frankfurt Main Airport (EDDF) |
| Time | Latitude | Longitude | Altitude | Speed | Heading |
|---|---|---|---|---|---|
| 2026-05-04 15:51 | 52.29734 | 4.76789 | 2 ft | 0 kts | 149° |
| 2026-05-04 16:08 | 52.29734 | 4.76790 | 2 ft | 0 kts | 149° |
| 2026-05-04 16:11 | 52.29734 | 4.76789 | 2 ft | 0 kts | 149° |
| 2026-05-04 16:11 | 52.29734 | 4.76790 | 2 ft | 0 kts | 149° |
| 2026-05-04 16:18 | 52.29734 | 4.76789 | 2 ft | 0 kts | 149° |
| 2026-05-04 16:19 | 52.29734 | 4.76790 | 2 ft | 0 kts | 149° |
| 2026-05-04 16:20 | 52.29734 | 4.76789 | 2 ft | 0 kts | 149° |
| 2026-05-04 16:21 | 52.29760 | 4.76763 | 2 ft | 2 kts | 149° |
| 2026-05-04 16:22 | 52.29786 | 4.76738 | 2 ft | 2 kts | 149° |
| 2026-05-04 16:22 | 52.29848 | 4.76695 | 2 ft | 0 kts | 269° |
| 2026-05-04 16:23 | 52.29842 | 4.76699 | 2 ft | 1 kts | 14° |
| 2026-05-04 16:24 | 52.29845 | 4.76695 | 2 ft | 0 kts | 291° |
| 2026-05-04 16:26 | 52.29839 | 4.76764 | 2 ft | 1 kts | 238° |
| 2026-05-04 16:26 | 52.29842 | 4.76772 | 2 ft | 0 kts | 238° |
| 2026-05-04 16:28 | 52.29839 | 4.76765 | 2 ft | 1 kts | 238° |
| 2026-05-04 16:28 | 52.29722 | 4.76463 | 2 ft | 20 kts | 238° |
| 2026-05-04 16:29 | 52.29420 | 4.75568 | 2 ft | 17 kts | 267° |
| 2026-05-04 16:31 | 52.29387 | 4.75591 | 2 ft | 0 kts | 330° |
| 2026-05-04 16:32 | 52.29616 | 4.75366 | 2 ft | 15 kts | 328° |
| 2026-05-04 16:33 | 52.29867 | 4.75144 | 2 ft | 23 kts | 311° |
| 2026-05-04 16:33 | 52.30096 | 4.74720 | 3 ft | 25 kts | 311° |
| 2026-05-04 16:34 | 52.30325 | 4.74298 | 3 ft | 6 kts | 310° |
| 2026-05-04 16:34 | 52.30331 | 4.74288 | 3 ft | 3 kts | 311° |
| 2026-05-04 16:35 | 52.30707 | 4.74214 | 3 ft | 30 kts | 2° |
| 2026-05-04 16:35 | 52.31336 | 4.74273 | 3 ft | 30 kts | 4° |
| 2026-05-04 16:36 | 52.31546 | 4.74294 | 3 ft | 30 kts | 3° |
| 2026-05-04 16:36 | 52.31935 | 4.74331 | 2 ft | 22 kts | 4° |
| 2026-05-04 16:37 | 52.32030 | 4.74203 | 2 ft | 12 kts | 275° |
| 2026-05-04 16:37 | 52.32039 | 4.73996 | 2 ft | 22 kts | 273° |
| 2026-05-04 16:37 | 52.32074 | 4.73409 | 2 ft | 27 kts | 298° |
| 2026-05-04 16:38 | 52.32399 | 4.72916 | 3 ft | 32 kts | 320° |
| 2026-05-04 16:39 | 52.32917 | 4.72078 | 3 ft | 35 kts | 311° |
| 2026-05-04 16:39 | 52.33134 | 4.71512 | 3 ft | 24 kts | 238° |
| 2026-05-04 16:40 | 52.32884 | 4.71119 | 2 ft | 24 kts | 242° |
| 2026-05-04 16:40 | 52.33096 | 4.70900 | 2 ft | 55 kts | 3° |
| 2026-05-04 16:41 | 52.34555 | 4.71033 | 2 ft | 149 kts | 4° |
| 2026-05-04 16:41 | 52.38068 | 4.71288 | 473 ft | 169 kts | 6° |
| 2026-05-04 16:42 | 52.41873 | 4.71679 | 1555 ft | 189 kts | 5° |
| 2026-05-04 16:43 | 52.44625 | 4.71958 | 2086 ft | 214 kts | 5° |
| 2026-05-04 16:43 | 52.47903 | 4.72287 | 2633 ft | 252 kts | 4° |
| 2026-05-04 16:43 | 52.49672 | 4.72460 | 3360 ft | 256 kts | 4° |
| 2026-05-04 16:44 | 52.54554 | 4.79496 | 5940 ft | 277 kts | 94° |
| 2026-05-04 16:45 | 52.53289 | 4.85505 | 7193 ft | 287 kts | 131° |
| 2026-05-04 16:46 | 52.48431 | 4.91234 | 9252 ft | 291 kts | 146° |
| 2026-05-04 16:46 | 52.45211 | 4.95266 | 10471 ft | 298 kts | 141° |
| 2026-05-04 16:47 | 52.41843 | 4.99635 | 11200 ft | 324 kts | 146° |
| 2026-05-04 16:47 | 52.37950 | 5.04050 | 11582 ft | 362 kts | 146° |
| 2026-05-04 16:48 | 52.31642 | 5.12224 | 12563 ft | 404 kts | 131° |
| 2026-05-04 16:48 | 52.29850 | 5.15765 | 13209 ft | 408 kts | 129° |
| 2026-05-04 16:49 | 52.26111 | 5.22714 | 14583 ft | 413 kts | 133° |
| 2026-05-04 16:49 | 52.22469 | 5.30016 | 15806 ft | 420 kts | 125° |
| 2026-05-04 16:50 | 52.19128 | 5.37885 | 16999 ft | 427 kts | 126° |
| 2026-05-04 16:50 | 52.15678 | 5.45798 | 18178 ft | 433 kts | 126° |
| 2026-05-04 16:51 | 52.12167 | 5.53816 | 19286 ft | 440 kts | 126° |
| 2026-05-04 16:51 | 52.10396 | 5.57878 | 19757 ft | 444 kts | 126° |
| 2026-05-04 16:51 | 52.06846 | 5.65962 | 20770 ft | 451 kts | 127° |
| 2026-05-04 16:52 | 52.03141 | 5.73279 | 21639 ft | 455 kts | 133° |
| 2026-05-04 16:52 | 52.00905 | 5.77325 | 22145 ft | 458 kts | 133° |
| 2026-05-04 16:53 | 51.96772 | 5.85035 | 23113 ft | 464 kts | 132° |
| 2026-05-04 16:53 | 51.90456 | 5.96828 | 24601 ft | 470 kts | 133° |
| 2026-05-04 16:54 | 51.88674 | 6.00133 | 24978 ft | 472 kts | 134° |
| 2026-05-04 16:55 | 51.80086 | 6.15986 | 27525 ft | 464 kts | 135° |
| 2026-05-04 16:55 | 51.75764 | 6.23890 | 28224 ft | 470 kts | 135° |
| 2026-05-04 16:56 | 51.71523 | 6.31609 | 28619 ft | 482 kts | 135° |
| 2026-05-04 16:56 | 51.65115 | 6.43266 | 30548 ft | 470 kts | 136° |
| 2026-05-04 16:57 | 51.62971 | 6.47163 | 31311 ft | 464 kts | 136° |
| 2026-05-04 16:57 | 51.58697 | 6.54882 | 32035 ft | 467 kts | 136° |
| 2026-05-04 16:58 | 51.52373 | 6.66239 | 32735 ft | 477 kts | 137° |
| 2026-05-04 16:58 | 51.50905 | 6.68875 | 32929 ft | 476 kts | 137° |
| 2026-05-04 17:00 | 51.31078 | 7.06356 | 32849 ft | 494 kts | 132° |
| 2026-05-04 17:01 | 51.27065 | 7.14321 | 32517 ft | 485 kts | 139° |
| 2026-05-04 17:01 | 51.21890 | 7.19768 | 30676 ft | 476 kts | 161° |
| 2026-05-04 17:02 | 51.16408 | 7.23179 | 29088 ft | 478 kts | 162° |
| 2026-05-04 17:02 | 51.10321 | 7.28067 | 27197 ft | 477 kts | 152° |
| 2026-05-04 17:03 | 51.07510 | 7.30640 | 26280 ft | 452 kts | 155° |
| 2026-05-04 17:03 | 51.04912 | 7.32790 | 25881 ft | 427 kts | 156° |
| 2026-05-04 17:03 | 50.99764 | 7.36923 | 25016 ft | 411 kts | 156° |
| 2026-05-04 17:04 | 50.94752 | 7.41003 | 24075 ft | 398 kts | 156° |
| 2026-05-04 17:04 | 50.89926 | 7.44928 | 23279 ft | 386 kts | 155° |
| 2026-05-04 17:05 | 50.85207 | 7.48787 | 22304 ft | 391 kts | 155° |
| 2026-05-04 17:05 | 50.80398 | 7.52702 | 20933 ft | 392 kts | 155° |
| 2026-05-04 17:06 | 50.75703 | 7.56525 | 19596 ft | 393 kts | 155° |
| 2026-05-04 17:06 | 50.73270 | 7.58507 | 18808 ft | 390 kts | 154° |
| 2026-05-04 17:07 | 50.68609 | 7.62299 | 17747 ft | 376 kts | 154° |
| 2026-05-04 17:07 | 50.67144 | 7.63487 | 17453 ft | 373 kts | 155° |
| 2026-05-04 17:07 | 50.64330 | 7.65757 | 16863 ft | 368 kts | 155° |
| 2026-05-04 17:07 | 50.61862 | 7.67751 | 16348 ft | 363 kts | 155° |
| 2026-05-04 17:08 | 50.59687 | 7.69507 | 15923 ft | 359 kts | 155° |
| 2026-05-04 17:08 | 50.55321 | 7.73025 | 15057 ft | 350 kts | 155° |
| 2026-05-04 17:08 | 50.53153 | 7.74770 | 14626 ft | 346 kts | 155° |
| 2026-05-04 17:09 | 50.51024 | 7.76480 | 14230 ft | 342 kts | 155° |
| 2026-05-04 17:09 | 50.48918 | 7.78170 | 13827 ft | 340 kts | 155° |
| 2026-05-04 17:09 | 50.46837 | 7.79838 | 13459 ft | 339 kts | 155° |
| 2026-05-04 17:10 | 50.42823 | 7.83238 | 12782 ft | 339 kts | 145° |
| 2026-05-04 17:10 | 50.38702 | 7.88522 | 12102 ft | 336 kts | 144° |
| 2026-05-04 17:11 | 50.36915 | 7.90814 | 11895 ft | 331 kts | 139° |
| 2026-05-04 17:11 | 50.35410 | 7.93503 | 12442 ft | 331 kts | 128° |
| 2026-05-04 17:11 | 50.33170 | 7.99999 | 12561 ft | 345 kts | 131° |
| 2026-05-04 17:12 | 50.31411 | 8.02488 | 12709 ft | 341 kts | 144° |
| 2026-05-04 17:12 | 50.27790 | 8.07190 | 12019 ft | 335 kts | 140° |
| 2026-05-04 17:13 | 50.22530 | 8.14138 | 11637 ft | 333 kts | 142° |
| 2026-05-04 17:14 | 50.17670 | 8.21592 | 11231 ft | 333 kts | 134° |
| 2026-05-04 17:14 | 50.16176 | 8.24317 | 11084 ft | 333 kts | 130° |
| 2026-05-04 17:14 | 50.13459 | 8.29856 | 10765 ft | 312 kts | 130° |
| 2026-05-04 17:15 | 50.12280 | 8.32249 | 10614 ft | 302 kts | 130° |
| 2026-05-04 17:15 | 50.10238 | 8.37751 | 10138 ft | 294 kts | 103° |
| 2026-05-04 17:16 | 50.10923 | 8.43613 | 9967 ft | 299 kts | 65° |
| 2026-05-04 17:16 | 50.13308 | 8.52478 | 9667 ft | 300 kts | 72° |
| 2026-05-04 17:17 | 50.14006 | 8.55489 | 9553 ft | 299 kts | 71° |
| 2026-05-04 17:17 | 50.16123 | 8.64458 | 9218 ft | 297 kts | 71° |
| 2026-05-04 17:18 | 50.16772 | 8.67205 | 9115 ft | 296 kts | 72° |
| 2026-05-04 17:18 | 50.18189 | 8.73176 | 8907 ft | 301 kts | 72° |
| 2026-05-04 17:19 | 50.19648 | 8.79341 | 8906 ft | 305 kts | 72° |
| 2026-05-04 17:19 | 50.21063 | 8.85344 | 8783 ft | 294 kts | 72° |
| 2026-05-04 17:20 | 50.22433 | 8.91184 | 7925 ft | 283 kts | 71° |
| 2026-05-04 17:20 | 50.23439 | 8.96954 | 6680 ft | 276 kts | 100° |
| 2026-05-04 17:20 | 50.22744 | 8.99626 | 5981 ft | 270 kts | 134° |
| 2026-05-04 17:21 | 50.19497 | 9.00972 | 4902 ft | 250 kts | 205° |
| 2026-05-04 17:21 | 50.16864 | 8.97568 | 4464 ft | 254 kts | 224° |
| 2026-05-04 17:22 | 50.15598 | 8.95724 | 4267 ft | 244 kts | 224° |
| 2026-05-04 17:22 | 50.14365 | 8.93932 | 3969 ft | 239 kts | 224° |
| 2026-05-04 17:23 | 50.11140 | 8.88574 | 3936 ft | 221 kts | 250° |
| 2026-05-04 17:23 | 50.10638 | 8.86379 | 3993 ft | 215 kts | 250° |
| 2026-05-04 17:23 | 50.09631 | 8.82215 | 3476 ft | 205 kts | 250° |
| 2026-05-04 17:24 | 50.09136 | 8.80154 | 3224 ft | 203 kts | 251° |
| 2026-05-04 17:24 | 50.07676 | 8.74050 | 2475 ft | 190 kts | 252° |
| 2026-05-04 17:25 | 50.07233 | 8.72180 | 2194 ft | 180 kts | 252° |
| 2026-05-04 17:25 | 50.06414 | 8.68745 | 1734 ft | 165 kts | 252° |
| 2026-05-04 17:26 | 50.05623 | 8.65408 | 1294 ft | 165 kts | 252° |
| 2026-05-04 17:26 | 50.04440 | 8.60501 | 648 ft | 159 kts | 251° |
| 2026-05-04 17:27 | 50.03727 | 8.57486 | 367 ft | 100 kts | 249° |
| 2026-05-04 17:27 | 50.03508 | 8.56575 | 359 ft | 32 kts | 250° |
| 2026-05-04 17:28 | 50.03346 | 8.55888 | 355 ft | 35 kts | 250° |
| 2026-05-04 17:29 | 50.03076 | 8.55472 | 352 ft | 3 kts | 118° |
| 2026-05-04 17:29 | 50.03104 | 8.55680 | 353 ft | 9 kts | 70° |
| 2026-05-04 17:30 | 50.03277 | 8.56400 | 357 ft | 28 kts | 71° |
| 2026-05-04 17:31 | 50.03305 | 8.56827 | 359 ft | 15 kts | 102° |
| 2026-05-04 17:31 | 50.03445 | 8.57495 | 365 ft | 27 kts | 69° |
| 2026-05-04 17:32 | 50.03582 | 8.58065 | 368 ft | 28 kts | 69° |
| 2026-05-04 17:33 | 50.03726 | 8.58679 | 372 ft | 18 kts | 69° |
| 2026-05-04 17:33 | 50.03732 | 8.58831 | 373 ft | 13 kts | 143° |
| 2026-05-04 17:34 | 50.03394 | 8.58837 | 367 ft | 3 kts | 265° |
| 2026-05-04 17:34 | 50.03406 | 8.58778 | 367 ft | 8 kts | 278° |
| 2026-05-04 17:35 | 50.03417 | 8.58715 | 367 ft | 0 kts | 295° |